Aviation Digital Data Service (ADDS)

Output produced by METARs form (2005 UTC 01 October 2022)
found at http://www.aviationweather.gov/metar/data/
 
KDRO 011953Z AUTO 36004KT 10SM CLR 20/06 A3019 RMK AO2 SLP152 T02000056
KDRO 011727Z 0118/0218 VRB03KT P6SM VCSH FEW050 BKN080 
     TEMPO 0118/0119 -SHRA BKN070 BKN100 
     FM011900 21007KT P6SM BKN110 
     FM012100 24010KT P6SM VCTS FEW070CB BKN090 
     FM020100 30008KT P6SM VCTS BKN090CB 
     FM020600 06002KT P6SM OVC100
       
KFMN 011953Z 15006KT 10SM CLR 24/06 A3010 RMK AO2 SLP138 T02440061
KFMN 011732Z 0118/0218 23006KT P6SM SCT080 
     FM012100 25010KT P6SM VCTS SCT090CB BKN250 
     FM020000 VRB06KT P6SM VCSH BKN080 OVC200 
     FM020900 09009KT P6SM VCSH BKN070 OVC120